createdAt,value
2022-07-30T00:01:04.304Z,5.3
2022-07-30T00:03:08.356Z,5.4
2022-07-30T00:05:15.709Z,6.3
2022-07-30T00:07:19.634Z,7.8
2022-07-30T00:09:23.742Z,6.9
2022-07-30T00:11:47.845Z,7.9
2022-07-30T00:13:52.009Z,8.1
2022-07-30T00:15:56.108Z,7.5
2022-07-30T00:20:07.380Z,9
2022-07-30T00:24:15.603Z,9.7
2022-07-30T00:30:28.105Z,9.4
2022-07-30T00:32:35.103Z,9.7
2022-07-30T00:38:47.483Z,11
2022-07-30T00:42:55.725Z,9
2022-07-30T00:44:59.849Z,9.6
2022-07-30T00:47:06.993Z,11.9
2022-07-30T00:49:11.220Z,13.7
2022-07-30T00:51:15.271Z,13.4
2022-07-30T00:53:19.341Z,13
2022-07-30T00:55:25.212Z,13.5
2022-07-30T00:57:29.136Z,14.5
2022-07-30T00:59:33.274Z,11.6
2022-07-30T01:01:40.383Z,15.9
2022-07-30T01:03:44.511Z,16.4
2022-07-30T01:05:48.640Z,14.9
2022-07-30T01:08:56.317Z,18.2
2022-07-30T01:13:04.543Z,15.5
2022-07-30T01:15:11.718Z,22.7
2022-07-30T01:17:15.816Z,21.8
2022-07-30T01:23:28.150Z,22.6
2022-07-30T01:31:47.727Z,28.3
2022-07-30T01:44:15.405Z,30.9
2022-07-30T01:46:19.542Z,28.7
2022-07-30T01:50:27.737Z,26.3
2022-07-30T01:52:31.829Z,27.3
2022-07-30T01:54:35.947Z,26
2022-07-30T01:56:40.082Z,26.2
2022-07-30T01:58:47.198Z,28.2
2022-07-30T02:00:51.332Z,28.7
2022-07-30T02:02:55.434Z,27.9
2022-07-30T02:03:59.065Z,30.9
2022-07-30T02:06:03.107Z,30.2
2022-07-30T02:08:07.235Z,32.1
2022-07-30T02:10:11.330Z,31.1
2022-07-30T02:12:18.470Z,32
2022-07-30T02:14:22.585Z,33.4
2022-07-30T02:16:26.734Z,30.9
2022-07-30T02:18:30.812Z,30.3
2022-07-30T02:20:35.792Z,30.8
2022-07-30T02:22:39.047Z,32.1
2022-07-30T02:24:43.145Z,30.8
2022-07-30T02:26:50.308Z,35.8
2022-07-30T02:28:54.396Z,32.6
2022-07-30T02:30:58.518Z,31.7
2022-07-30T02:33:02.614Z,32.2
2022-07-30T02:35:06.749Z,30.4
2022-07-30T02:37:10.871Z,33
2022-07-30T02:39:14.971Z,32.5
2022-07-30T02:41:22.095Z,41.2
2022-07-30T02:43:26.216Z,38.9
2022-07-30T02:45:30.308Z,38.9
2022-07-30T02:47:34.417Z,40.5
2022-07-30T02:49:38.545Z,38.7
2022-07-30T02:51:42.656Z,36.1
2022-07-30T02:53:46.751Z,35.2
2022-07-30T02:55:53.884Z,34
2022-07-30T02:57:58.012Z,30.2
2022-07-30T03:00:02.160Z,29.7
2022-07-30T03:01:05.781Z,28.9
2022-07-30T03:07:18.019Z,23.3
2022-07-30T03:11:29.253Z,20.2
2022-07-30T03:23:56.916Z,20.1
2022-07-30T03:28:05.154Z,16.2
2022-07-30T03:30:09.271Z,14.5
2022-07-30T03:32:13.871Z,16.2
2022-07-30T03:34:17.479Z,17.6
2022-07-30T03:38:28.732Z,16.7
2022-07-30T03:40:32.829Z,16.9
2022-07-30T03:42:36.950Z,18.9
2022-07-30T03:44:41.075Z,18.2
2022-07-30T03:46:45.258Z,20.1
2022-07-30T03:48:49.355Z,20.8
2022-07-30T03:50:53.377Z,22
2022-07-30T03:55:04.617Z,7.3
2022-07-30T04:01:35.125Z,7.8
2022-07-30T04:03:39.273Z,7.9
2022-07-30T04:05:46.283Z,8.2
2022-07-30T04:07:50.392Z,6.5
2022-07-30T04:09:54.598Z,6.4
2022-07-30T04:11:58.607Z,7.6
2022-07-30T04:14:02.739Z,6.8
2022-07-30T04:16:39.713Z,7.4
2022-07-30T04:18:10.950Z,8
2022-07-30T04:20:18.242Z,6.5
2022-07-30T04:24:26.255Z,7.1
2022-07-30T04:28:34.481Z,6.7
2022-07-30T04:30:38.575Z,7.3
2022-07-30T04:32:42.695Z,8.2
2022-07-30T04:34:49.827Z,8
2022-07-30T04:36:53.920Z,6.9
2022-07-30T04:38:58.013Z,7.5
2022-07-30T04:43:06.218Z,6.4
2022-07-30T04:45:11.637Z,6.2
2022-07-30T04:47:14.441Z,8
2022-07-30T04:49:21.664Z,8.5
2022-07-30T04:51:25.660Z,6.3
2022-07-30T04:53:29.739Z,7.8
2022-07-30T04:54:33.295Z,7.6
2022-07-30T04:56:37.411Z,6.1
2022-07-30T04:58:41.504Z,6.7
2022-07-30T05:00:45.634Z,6.6
2022-07-30T05:02:52.753Z,7
2022-07-30T05:04:56.898Z,6.7
2022-07-30T05:07:01.196Z,7.5
2022-07-30T05:09:05.068Z,5.6
2022-07-30T05:11:09.189Z,5.5
2022-07-30T05:13:13.290Z,3.8
2022-07-30T05:15:17.405Z,6.8
2022-07-30T05:17:24.521Z,6.5
2022-07-30T05:19:28.633Z,5.2
2022-07-30T05:23:36.856Z,4.6
2022-07-30T05:25:40.951Z,4
2022-07-30T05:27:45.083Z,6
2022-07-30T05:29:49.173Z,4.6
2022-07-30T05:31:56.297Z,4.8
2022-07-30T05:36:04.494Z,4.1
2022-07-30T05:38:08.608Z,5
2022-07-30T05:40:12.542Z,3.6
2022-07-30T05:42:16.648Z,3.8
2022-07-30T05:44:23.923Z,2.9
2022-07-30T05:46:27.976Z,4.6
2022-07-30T05:48:32.002Z,3.8
2022-07-30T05:50:36.137Z,3.6
2022-07-30T05:51:39.670Z,3.9
2022-07-30T05:55:47.878Z,3.8
2022-07-30T05:57:52.012Z,3.1
2022-07-30T05:59:59.137Z,3.3
2022-07-30T06:02:03.501Z,3.6
2022-07-30T06:04:07.399Z,4.3
2022-07-30T06:06:11.466Z,3.3
2022-07-30T06:08:15.567Z,4.7
2022-07-30T06:16:35.053Z,2.6
2022-07-30T06:18:39.161Z,3
2022-07-30T06:20:43.254Z,3.7
2022-07-30T06:22:47.370Z,3.4
2022-07-30T06:24:51.501Z,4.1
2022-07-30T06:26:55.615Z,3.3
2022-07-30T06:29:02.834Z,3
2022-07-30T06:31:06.989Z,2.8
2022-07-30T06:33:10.989Z,3.4
2022-07-30T06:35:15.128Z,3.2
2022-07-30T06:37:19.242Z,2.5
2022-07-30T06:39:56.304Z,2.4
2022-07-30T06:41:27.452Z,2.3
2022-07-30T06:43:34.602Z,3.2
2022-07-30T06:45:38.715Z,3
2022-07-30T06:47:42.832Z,2.2
2022-07-30T06:48:46.465Z,1.7
2022-07-30T06:50:50.572Z,2.8
2022-07-30T06:52:56.212Z,2.2
2022-07-30T06:55:00.309Z,2.4
2022-07-30T06:57:07.438Z,1.8
2022-07-30T06:59:11.545Z,2.1
2022-07-30T07:03:19.786Z,2.6
2022-07-30T07:05:23.929Z,1.6
2022-07-30T07:07:41.390Z,2.2
2022-07-30T07:09:32.183Z,2.2
2022-07-30T07:11:39.711Z,1.8
2022-07-30T07:13:43.436Z,2.1
2022-07-30T07:15:47.743Z,2.1
2022-07-30T07:17:51.702Z,2.1
2022-07-30T07:20:00.315Z,1.9
2022-07-30T07:21:59.944Z,1.4
2022-07-30T07:28:15.343Z,1.7
2022-07-30T07:30:19.490Z,2
2022-07-30T07:32:23.608Z,1.8
2022-07-30T07:36:31.862Z,1.7
2022-07-30T07:38:35.975Z,1.7
2022-07-30T07:40:43.120Z,2.2
2022-07-30T07:42:47.261Z,1.8
2022-07-30T07:47:15.910Z,1.4
2022-07-30T07:53:31.200Z,1.6
2022-07-30T07:55:35.506Z,1.3
2022-07-30T07:57:39.430Z,1.1
2022-07-30T07:59:43.555Z,0.8
2022-07-30T08:01:47.656Z,1.2
2022-07-30T08:03:51.788Z,1.2
2022-07-30T08:06:05.832Z,1.4
2022-07-30T08:08:03.033Z,2.9
2022-07-30T08:10:07.167Z,1
2022-07-30T08:12:11.254Z,1.2
2022-07-30T08:14:15.386Z,1.3
2022-07-30T08:16:19.524Z,1.7
2022-07-30T08:20:30.793Z,1.3
2022-07-30T08:22:34.836Z,1.1
2022-07-30T08:24:38.960Z,1.5
2022-07-30T08:26:43.180Z,1.1
2022-07-30T08:28:47.154Z,0.9
2022-07-30T08:30:51.264Z,1.3
2022-07-30T08:32:55.346Z,0.8
2022-07-30T08:34:59.469Z,1.3
2022-07-30T08:37:06.605Z,1.1
2022-07-30T08:42:18.377Z,1.2
2022-07-30T08:44:22.486Z,0.8
2022-07-30T08:46:26.563Z,0.9
2022-07-30T08:48:30.687Z,0.9
2022-07-30T08:50:37.811Z,1
2022-07-30T08:52:41.907Z,0.8
2022-07-30T08:54:45.983Z,0.8
2022-07-30T08:58:54.179Z,0.9
2022-07-30T09:00:58.308Z,0.9
2022-07-30T09:03:02.383Z,0.7
2022-07-30T09:05:09.519Z,0.8
2022-07-30T09:09:17.770Z,0.6
2022-07-30T09:11:21.845Z,0.7
2022-07-30T09:13:25.962Z,0.7
2022-07-30T09:15:30.040Z,0.7
2022-07-30T09:21:45.339Z,0.4
2022-07-30T09:32:06.174Z,0.8
2022-07-30T09:34:13.516Z,0.6
2022-07-30T09:36:17.607Z,1
2022-07-30T09:38:21.689Z,0.6
2022-07-30T09:39:25.254Z,0.6
2022-07-30T09:45:37.517Z,0.6
2022-07-30T09:47:44.637Z,0.8
2022-07-30T09:49:48.689Z,0.7
2022-07-30T09:51:55.704Z,0.4
2022-07-30T09:53:57.655Z,0.3
2022-07-30T09:56:00.947Z,0.4
2022-07-30T09:58:05.029Z,0.6
2022-07-30T10:02:16.227Z,1
2022-07-30T10:04:20.330Z,0.6
2022-07-30T10:06:24.395Z,0.4
2022-07-30T10:08:28.470Z,0.4
2022-07-30T10:10:32.570Z,1.6
2022-07-30T10:12:36.623Z,0.7
2022-07-30T10:14:42.397Z,0.7
2022-07-30T10:16:47.837Z,0.4
2022-07-30T10:18:51.909Z,0.6
2022-07-30T10:20:56.000Z,0.9
2022-07-30T10:23:00.104Z,0.7
2022-07-30T10:25:05.342Z,0.7
2022-07-30T10:27:08.307Z,0.5
2022-07-30T10:29:13.126Z,0.6
2022-07-30T10:35:34.778Z,0.4
2022-07-30T10:38:39.174Z,0.7
2022-07-30T10:40:39.664Z,0.8
2022-07-30T10:42:43.400Z,0.7
2022-07-30T10:44:50.626Z,0.6
2022-07-30T10:53:06.834Z,0.4
2022-07-30T10:55:10.951Z,0.4
2022-07-30T10:57:22.740Z,0.7
2022-07-30T11:01:26.169Z,0.3
2022-07-30T11:05:45.468Z,0.6
2022-07-30T11:12:02.059Z,0.6
2022-07-30T11:15:57.748Z,0.3
2022-07-30T11:22:09.955Z,0.9
2022-07-30T11:24:14.025Z,0.3
2022-07-30T11:28:25.209Z,0.5
2022-07-30T11:30:29.291Z,0.5
2022-07-30T11:32:33.336Z,0.5
2022-07-30T11:34:57.746Z,0.2
2022-07-30T11:37:01.804Z,0.3
2022-07-30T11:39:07.597Z,0.6
2022-07-30T11:41:12.968Z,0.6
2022-07-30T11:43:17.014Z,0.5
2022-07-30T11:45:21.069Z,0.3
2022-07-30T11:47:25.149Z,0.4
2022-07-30T11:49:29.222Z,0.3
2022-07-30T11:51:33.219Z,0.2
2022-07-30T11:53:37.289Z,0.3
2022-07-30T11:55:44.545Z,1.4
2022-07-30T11:57:48.425Z,0.5
2022-07-30T11:59:52.479Z,1
2022-07-30T12:01:56.532Z,0.4
2022-07-30T12:04:00.553Z,0.9
2022-07-30T12:06:04.635Z,0.5
2022-07-30T12:08:08.637Z,0.6
2022-07-30T12:10:16.254Z,0.7
2022-07-30T12:12:19.761Z,0.3
2022-07-30T12:14:23.808Z,1
2022-07-30T12:16:27.857Z,0.4
2022-07-30T12:18:31.884Z,0.7
2022-07-30T12:20:35.932Z,0.6
2022-07-30T12:22:39.971Z,0.6
2022-07-30T12:24:47.064Z,0.4
2022-07-30T12:28:55.261Z,0.6
2022-07-30T12:29:58.688Z,0.5
2022-07-30T12:32:02.751Z,0.5
2022-07-30T12:34:06.800Z,0.5
2022-07-30T12:36:10.831Z,0.5
2022-07-30T12:42:26.063Z,0.8
2022-07-30T12:44:30.157Z,0.4
2022-07-30T12:48:38.216Z,0.4
2022-07-30T12:50:43.847Z,0.6
2022-07-30T12:52:50.881Z,0.6
2022-07-30T12:54:54.972Z,0.6
2022-07-30T12:56:59.392Z,0.5
2022-07-30T13:01:07.196Z,0.4
2022-07-30T13:03:11.190Z,0.5
2022-07-30T13:05:15.252Z,0.5
2022-07-30T13:07:22.348Z,0.5
2022-07-30T13:09:26.470Z,0.5
2022-07-30T13:13:34.565Z,0.7
2022-07-30T13:15:38.792Z,0.8
2022-07-30T13:19:46.787Z,0.6
2022-07-30T13:27:05.911Z,1.3
2022-07-30T13:29:09.603Z,0.5
2022-07-30T13:31:13.672Z,0.6
2022-07-30T13:33:17.758Z,0.6
2022-07-30T13:35:24.824Z,0.4
2022-07-30T13:37:37.616Z,0.6
2022-07-30T13:39:32.953Z,1
2022-07-30T13:41:37.039Z,0.4
2022-07-30T13:43:41.078Z,0.7
2022-07-30T13:45:45.386Z,0.5
2022-07-30T13:47:49.468Z,1.2
2022-07-30T13:49:56.573Z,0.6
2022-07-30T13:52:00.625Z,0.9
2022-07-30T13:54:04.688Z,0.5
2022-07-30T13:56:12.422Z,0.7
2022-07-30T13:58:12.808Z,0.4
2022-07-30T14:00:16.873Z,0.4
2022-07-30T14:04:28.043Z,0.5
2022-07-30T14:08:36.378Z,0.7
2022-07-30T14:10:40.449Z,0.8
2022-07-30T14:12:44.520Z,0.6
2022-07-30T14:14:48.561Z,0.9
2022-07-30T14:16:53.872Z,0.6
2022-07-30T14:18:59.789Z,0.6
2022-07-30T14:21:03.850Z,0.7
2022-07-30T14:23:07.827Z,0.9
2022-07-30T14:24:11.399Z,0.9
2022-07-30T14:26:15.465Z,0.7
2022-07-30T14:28:19.584Z,0.7
2022-07-30T14:34:34.683Z,0.8
2022-07-30T14:36:38.738Z,0.7
2022-07-30T14:40:46.849Z,0.7
2022-07-30T14:42:50.920Z,1
2022-07-30T14:44:56.955Z,0.9
2022-07-30T14:49:06.143Z,0.9
2022-07-30T14:51:16.200Z,0.7
2022-07-30T14:53:14.224Z,0.8
2022-07-30T14:59:26.427Z,0.7
2022-07-30T15:03:37.596Z,0.5
2022-07-30T15:05:41.638Z,0.5
2022-07-30T15:07:45.707Z,1
2022-07-30T15:09:49.764Z,0.9
2022-07-30T15:12:09.407Z,0.7
2022-07-30T15:13:57.883Z,0.8
2022-07-30T15:16:04.989Z,1
2022-07-30T15:18:09.055Z,1
2022-07-30T15:20:13.083Z,0.7
2022-07-30T15:22:31.239Z,1
2022-07-30T15:24:35.297Z,0.7
2022-07-30T15:26:39.323Z,0.7
2022-07-30T15:28:46.447Z,0.8
2022-07-30T15:30:50.463Z,0.6
2022-07-30T15:32:54.526Z,0.7
2022-07-30T15:34:58.590Z,0.9
2022-07-30T15:39:06.716Z,0.5
2022-07-30T15:41:13.626Z,0.9
2022-07-30T15:47:25.979Z,0.6
2022-07-30T15:53:38.148Z,0.6
2022-07-30T15:57:49.321Z,0.7
2022-07-30T16:06:05.587Z,0.6
2022-07-30T16:14:24.917Z,0.5
2022-07-30T16:17:32.550Z,1
2022-07-30T16:19:36.599Z,0.7
2022-07-30T16:21:40.675Z,0.6
2022-07-30T16:23:44.765Z,0.9
2022-07-30T16:25:52.456Z,0.6
2022-07-30T16:27:56.352Z,1
2022-07-30T16:30:00.437Z,1
2022-07-30T16:32:05.039Z,0.8
2022-07-30T16:34:08.593Z,0.7
2022-07-30T16:36:12.676Z,0.9
2022-07-30T16:38:16.729Z,0.9
2022-07-30T16:40:23.833Z,0.8
2022-07-30T16:42:27.908Z,0.6
2022-07-30T16:44:31.981Z,0.9
2022-07-30T16:46:36.050Z,0.8
2022-07-30T16:48:40.122Z,0.7
2022-07-30T16:50:44.167Z,0.5
2022-07-30T16:52:48.240Z,0.7
2022-07-30T16:54:55.366Z,1.1
2022-07-30T16:56:59.399Z,0.7
2022-07-30T16:59:03.478Z,0.8
2022-07-30T17:01:07.597Z,0.5
2022-07-30T17:03:12.078Z,0.6
2022-07-30T17:05:15.700Z,0.8
2022-07-30T17:07:19.678Z,0.7
2022-07-30T17:09:26.775Z,0.6
2022-07-30T17:11:48.095Z,0.9
2022-07-30T17:13:34.907Z,0.5
2022-07-30T17:14:38.456Z,1
2022-07-30T17:16:42.535Z,0.7
2022-07-30T17:18:46.646Z,0.7
2022-07-30T17:20:50.701Z,0.8
2022-07-30T17:22:57.866Z,0.7
2022-07-30T17:25:01.913Z,0.3
2022-07-30T17:27:05.979Z,0.4
2022-07-30T17:29:13.943Z,0.6
2022-07-30T17:31:14.187Z,0.8
2022-07-30T17:33:18.275Z,0.8
2022-07-30T17:35:22.358Z,0.7
2022-07-30T17:37:29.504Z,0.6
2022-07-30T17:40:26.732Z,0.4
2022-07-30T17:41:37.691Z,0.8
2022-07-30T17:43:41.768Z,0.3
2022-07-30T17:45:45.875Z,0.8
2022-07-30T17:47:49.996Z,0.6
2022-07-30T17:52:01.473Z,0.8
2022-07-30T17:56:09.427Z,0.8
2022-07-30T17:58:13.523Z,0.8
2022-07-30T18:00:17.709Z,0.5
2022-07-30T18:02:25.778Z,0.7
2022-07-30T18:04:25.839Z,0.7
2022-07-30T18:06:32.985Z,0.8
2022-07-30T18:08:37.102Z,0.9
2022-07-30T18:10:41.231Z,0.6
2022-07-30T18:11:44.759Z,0.9
2022-07-30T18:26:16.649Z,0.6
2022-07-30T18:30:24.980Z,0.8
2022-07-30T18:32:29.029Z,0.5
2022-07-30T18:34:36.163Z,1
2022-07-30T18:36:40.298Z,0.3
2022-07-30T18:38:44.396Z,0.6
2022-07-30T18:40:48.540Z,0.6
2022-07-30T18:42:52.707Z,1.3
2022-07-30T18:44:56.782Z,1
2022-07-30T18:47:00.913Z,0.6
2022-07-30T18:49:26.962Z,0.6
2022-07-30T18:53:17.920Z,1.2
2022-07-30T18:55:21.986Z,0.5
2022-07-30T18:57:26.096Z,0.6
2022-07-30T18:59:30.254Z,0.6
2022-07-30T19:01:34.388Z,0.9
2022-07-30T19:03:41.557Z,0.7
2022-07-30T19:05:45.830Z,0.6
2022-07-30T19:07:56.889Z,1
2022-07-30T19:10:08.642Z,0.8
2022-07-30T19:12:12.794Z,0.6
2022-07-30T19:14:16.918Z,0.9
2022-07-30T19:16:24.077Z,0.7
2022-07-30T19:18:28.191Z,0.7
2022-07-30T19:20:32.317Z,1
2022-07-30T19:22:36.428Z,1
2022-07-30T19:24:40.570Z,1.2
2022-07-30T19:28:48.818Z,0.6
2022-07-30T19:30:55.977Z,0.8
2022-07-30T19:33:00.098Z,0.9
2022-07-30T19:37:08.369Z,1.5
2022-07-30T19:39:21.249Z,0.9
2022-07-30T19:45:27.904Z,1.3
2022-07-30T19:47:35.333Z,0.8
2022-07-30T19:49:36.171Z,0.9
2022-07-30T19:52:07.097Z,1
2022-07-30T19:57:54.174Z,0.9
2022-07-30T20:00:04.558Z,2.5
2022-07-30T20:02:04.393Z,1.1
2022-07-30T20:13:44.795Z,1.6
2022-07-30T20:15:35.376Z,1
2022-07-30T20:17:39.506Z,1.1
2022-07-30T20:19:48.510Z,1.3
2022-07-30T20:21:57.116Z,1.7
2022-07-30T20:25:56.031Z,0.8
2022-07-30T20:28:03.199Z,1.4
2022-07-30T20:30:07.297Z,1
2022-07-30T20:32:11.441Z,1.1
2022-07-30T20:34:17.747Z,1
2022-07-30T20:38:23.833Z,0.9
2022-07-30T20:40:27.985Z,0.7
2022-07-30T20:42:35.129Z,0.9
2022-07-30T20:44:39.272Z,1
2022-07-30T20:46:43.396Z,1
2022-07-30T20:48:47.622Z,1
2022-07-30T20:50:51.665Z,1.4
2022-07-30T20:52:55.799Z,1.4
2022-07-30T20:57:07.094Z,1.4
2022-07-30T20:59:11.215Z,0.9
2022-07-30T21:01:17.800Z,0.7
2022-07-30T21:02:18.964Z,0.8
2022-07-30T21:06:27.204Z,0.8
2022-07-30T21:08:31.471Z,0.8
2022-07-30T21:10:38.482Z,0.7
2022-07-30T21:12:44.628Z,1.2
2022-07-30T21:14:48.509Z,1
2022-07-30T21:16:54.388Z,1.4
2022-07-30T21:18:55.020Z,0.7
2022-07-30T21:25:10.410Z,0.9
2022-07-30T21:33:31.185Z,0.9
2022-07-30T21:35:32.192Z,1.1
2022-07-30T21:37:36.374Z,0.9
2022-07-30T21:39:42.355Z,0.9
2022-07-30T21:41:46.475Z,0.7
2022-07-30T21:43:50.601Z,0.9
2022-07-30T21:45:55.027Z,1
2022-07-30T21:47:58.881Z,0.7
2022-07-30T21:50:03.179Z,0.9
2022-07-30T21:52:07.533Z,2.4
2022-07-30T21:54:17.060Z,1.4
2022-07-30T21:56:18.426Z,1.5
2022-07-30T21:58:25.970Z,1.4
2022-07-30T21:59:27.805Z,1
2022-07-30T22:07:45.655Z,1.1
2022-07-30T22:09:49.792Z,1.2
2022-07-30T22:11:53.927Z,0.8
2022-07-30T22:13:58.050Z,0.9
2022-07-30T22:16:02.228Z,1.2
2022-07-30T22:18:06.318Z,1.1
2022-07-30T22:20:11.385Z,0.8
2022-07-30T22:26:26.576Z,1.3
2022-07-30T22:40:58.333Z,1.2
2022-07-30T22:43:04.175Z,1.3
2022-07-30T22:45:06.063Z,1
2022-07-30T22:54:11.309Z,1.2
2022-07-30T22:55:29.760Z,1.4
2022-07-30T23:00:00.229Z,1.5
2022-07-30T23:06:14.706Z,1.3
2022-07-30T23:08:17.508Z,1.6
2022-07-30T23:10:21.640Z,1.9
2022-07-30T23:12:17.923Z,1.4
2022-07-30T23:12:25.829Z,1.8
2022-07-30T23:14:29.884Z,1.2
2022-07-30T23:18:41.173Z,1.2
2022-07-30T23:20:45.324Z,1.5
2022-07-30T23:22:49.431Z,1.3
2022-07-30T23:24:53.572Z,1.2
2022-07-30T23:26:57.715Z,1.9
2022-07-30T23:31:05.955Z,2.6
2022-07-30T23:33:13.126Z,1
2022-07-30T23:35:17.221Z,1.7
2022-07-30T23:37:21.376Z,1.2
2022-07-30T23:39:25.495Z,1.3
2022-07-30T23:43:33.740Z,1.3
2022-07-30T23:45:37.893Z,1.5
2022-07-30T23:48:01.434Z,1.3
2022-07-30T23:49:49.173Z,1.8
2022-07-30T23:51:53.310Z,2
2022-07-30T23:52:56.883Z,2
2022-07-30T23:57:05.606Z,1.4
2022-07-30T23:59:09.307Z,1.6
